Дата Пункты Температура Давл., мм. Влажн., % Ветер Погодные явления
Воздуха Воды Направл. Скорость
14.10.17 12:00 Одесса 14.0 15.0 761 63 С-З 3 12 часов
14.10.17 09:00 Одесса 12.0 15.0 761 74 С-З 2 09 часов
14.10.17 06:00 Одесса 8.0 16.0 761 86 З 2 06 часов
14.10.17 03:00 Одесса 9.0 16.0 760 88 З 3 03 часа
13.10.17 09:00 Одесса 11.0 16.0 760 86 З 7 21 час
13.10.17 06:00 Одесса 16.0 16.0 760 57 С-З 3 18 часов
13.10.17 03:00 Одесса 18.0 16.0 759 52 С-З 3 15 часов
13.10.17 12:00 Одесса 18.0 15.0 760 66 Ю-В 1 12 часов
13.10.17 09:00 Одесса 14.0 15.0 760 80 З 2 09 часов
13.10.17 06:00 Одесса 12.0 15.0 760 84 З 2 06 часов
13.10.17 03:00 Одесса 14.0 15.0 761 78 З 2 03 часа
12.10.17 09:00 Одесса 15.0 16.0 762 77 Ю-З 2 21 час
12.10.17 06:00 Одесса 17.0 15.0 762 74 Ю-З 1 18 часов
12.10.17 03:00 Одесса 20.0 15.0 762 54 З 3 15 часов
12.10.17 12:00 Одесса 19.0 15.0 762 55 З 1 12 часов
09.10.17 09:00 Одесса 11.0 15.0 759 76 З 1 21 час
09.10.17 06:00 Одесса 13.0 15.0 758 67 С-З 1 18 часов
09.10.17 03:00 Одесса 17.0 15.0 756 69 Ю-З 2 15 часов
09.10.17 12:00 Одесса 14.0 15.0 755 78 З 2 12 часов
09.10.17 09:00 Одесса 11.0 15.0 754 81 З 2 09 часов
Количество строк
1 2 3 4 5 6 7 8 9 10
Page 3 of 284